Аэропорт: Адлер. Сочи

ICAO: URSS

METAR:
2019-12-12 10:00:00
URSS 121000Z 02001MPS 9999 NSC 16/M03 Q1013 R02/010070 R06/////// NOSIG RMK R06/00000MPS QFE758
METAR:
2019-12-12 07:56:00
TAF URSS 120756Z 1209/1309 28004G09MPS 9999 NSC BECMG 1214/1215 05006MPS